Time;durP1;ratioP1;P1;durP2;ratioP2;P2;SDS_P1;SDS_P2;PMS_P1;PMS_P2;Temp;Humidity;BMP_temperature;BMP_pressure;BME280_temperature;BME280_humidity;BME280_pressure;Samples;Min_cycle;Max_cycle;Signal;HPM_P1;HPM_P2
2022/05/01 00:01:28;;;;;;;;;;;;;;;;;;5030800;28;19928;-59
2022/05/01 00:03:56;;;;;;;;;;;;;;;;;;5032023;28;20019;-59
2022/05/01 00:06:21;;;;;;;;;;;;;;;;;;5031050;28;19924;-59
2022/05/01 00:08:46;;;;;;;;;;;;;;;;;;5031982;28;19924;-59
2022/05/01 00:11:12;;;;;;;;;;;;;;;;;;5030973;28;19964;-59
2022/05/01 00:13:38;;;;;;;;;;;;;;;;;;5031126;28;19931;-59
2022/05/01 00:16:06;;;;;;;;;;;;;;;;;;4989670;28;19921;-59
2022/05/01 00:18:31;;;;;;;;;;;;;;;;;;5011197;28;19924;-59
2022/05/01 00:20:57;;;;;;;;;;;;;;;;;;5013152;28;19916;-59
2022/05/01 00:23:22;;;;;;;;;;;;;;;;;;5001644;28;21723;-59
2022/05/01 00:25:47;;;;;;;;;;;;;;;;;;5031345;28;20463;-59
2022/05/01 00:28:13;;;;;;;;;;;;;;;;;;5031031;28;19938;-58
2022/05/01 00:30:38;;;;;;;;;;;;;;;;;;5007717;28;19924;-58
2022/05/01 00:38:39;;;;;;;;;;;;;;;;;;5009208;28;19924;-58
2022/05/01 00:41:11;;;;;;;;;;;;;;;;;;5030179;28;19994;-59
2022/05/01 00:43:39;;;;;;;;;;;;;;;;;;4993055;28;19920;-58
2022/05/01 00:46:07;;;;;;;;;;;;;;;;;;5029936;28;19961;-59
2022/05/01 00:48:33;;;;;;;;;;;;;;;;;;5009952;28;20051;-60
2022/05/01 00:50:58;;;;;;;;;;;;;;;;;;5030651;28;19925;-59
2022/05/01 00:53:23;;;;;;;;;;;;;;;;;;5030220;28;20073;-60
2022/05/01 00:55:51;;;;;;;;;;;;;;;;;;5030277;28;21905;-59
2022/05/01 00:58:16;;;;;;;;;;;;;;;;;;5028370;28;19931;-57
2022/05/01 01:00:42;;;;;;;;;;;;;;;;;;5029464;28;19990;-58
2022/05/01 01:03:10;;;;;;;;;;;;;;;;;;5009480;28;20296;-58
2022/05/01 01:05:38;;;;;;;;;;;;;;;;;;5010645;28;19921;-59
2022/05/01 01:08:03;;;;;;;;;;;;;;;;;;5029093;28;22739;-58
2022/05/01 01:10:31;;;;;;;;;;;;;;;;;;5027142;28;19920;-58
2022/05/01 01:12:58;;;;;;;;;;;;;;;;;;5005445;28;19932;-58
2022/05/01 01:15:24;;;;;;;;;;;;;;;;;;5030117;28;19928;-59
2022/05/01 01:21:09;;;;;;;;;;;;;;;;;;5026714;28;19994;-59
2022/05/01 01:23:37;;;;;;;;;;;;;;;;;;5011277;28;19920;-58
2022/05/01 01:26:05;;;;;;;;;;;;;;;;;;5029328;28;21161;-59
2022/05/01 01:28:30;;;;;;;;;;;;;;;;;;4994775;28;19923;-61
2022/05/01 01:33:45;;;;;;;;;;;;;;;;;;5031797;28;20019;-59
2022/05/01 01:36:13;;;;;;;;;;;;;;;;;;5030595;28;19975;-59
2022/05/01 01:38:38;;;;;;;;;;;;;;;;;;5030121;28;19924;-59
2022/05/01 01:41:03;;;;;;;;;;;;;;;;;;5031513;28;20466;-59
2022/05/01 01:43:28;;;;;;;;;;;;;;;;;;5009185;28;20493;-59
2022/05/01 01:45:55;;;;;;;;;;;;;;;;;;5029345;28;20014;-58
2022/05/01 01:48:25;;;;;;;;;;;;;;;;;;5029042;28;19917;-59
2022/05/01 01:50:55;;;;;;;;;;;;;;;;;;5014561;28;19917;-59
2022/05/01 01:53:20;;;;;;;;;;;;;;;;;;5011775;28;19932;-59
2022/05/01 01:55:45;;;;;;;;;;;;;;;;;;5032605;28;20029;-58
2022/05/01 01:58:13;;;;;;;;;;;;;;;;;;5032819;28;19920;-58
2022/05/01 02:00:38;;;;;;;;;;;;;;;;;;5030981;28;20100;-58
2022/05/01 02:03:04;;;;;;;;;;;;;;;;;;5011889;28;20666;-59
2022/05/01 02:05:31;;;;;;;;;;;;;;;;;;5011685;28;19920;-58
2022/05/01 02:07:59;;;;;;;;;;;;;;;;;;5029599;28;19940;-59
2022/05/01 02:10:24;;;;;;;;;;;;;;;;;;5013430;28;19921;-59
2022/05/01 02:12:52;;;;;;;;;;;;;;;;;;5020423;28;20553;-59
2022/05/01 02:15:19;;;;;;;;;;;;;;;;;;5033477;28;19928;-59
2022/05/01 02:17:53;;;;;;;;;;;;;;;;;;5014249;28;19928;-59
2022/05/01 02:20:18;;;;;;;;;;;;;;;;;;5033324;28;21872;-59
2022/05/01 02:22:44;;;;;;;;;;;;;;;;;;4997573;28;19963;-58
2022/05/01 02:25:09;;;;;;;;;;;;;;;;;;5034873;28;20102;-59
2022/05/01 02:27:37;;;;;;;;;;;;;;;;;;5034512;28;20835;-59
2022/05/01 02:30:03;;;;;;;;;;;;;;;;;;5014568;28;21722;-59
2022/05/01 02:32:30;;;;;;;;;;;;;;;;;;5035567;28;19963;-59
2022/05/01 02:34:58;;;;;;;;;;;;;;;;;;5034833;28;19927;-59
2022/05/01 02:37:24;;;;;;;;;;;;;;;;;;5014199;28;19932;-59
2022/05/01 02:40:08;;;;;;;;;;;;;;;;;;5014734;28;19940;-59
2022/05/01 02:42:33;;;;;;;;;;;;;;;;;;4997719;28;19924;-58
2022/05/01 02:44:59;;;;;;;;;;;;;;;;;;5034680;28;19955;-58
2022/05/01 02:47:26;;;;;;;;;;;;;;;;;;5012475;28;19917;-59
2022/05/01 02:49:55;;;;;;;;;;;;;;;;;;5030994;28;19932;-59
2022/05/01 02:52:21;;;;;;;;;;;;;;;;;;5032626;28;19947;-59
2022/05/01 02:54:48;;;;;;;;;;;;;;;;;;5034040;28;19947;-58
2022/05/01 02:57:14;;;;;;;;;;;;;;;;;;5013733;28;20745;-59
2022/05/01 02:59:40;;;;;;;;;;;;;;;;;;5038056;28;19917;-59
2022/05/01 03:02:07;;;;;;;;;;;;;;;;;;5034609;28;19917;-59
2022/05/01 03:04:38;;;;;;;;;;;;;;;;;;5035316;28;19920;-59
2022/05/01 03:07:09;;;;;;;;;;;;;;;;;;5013887;28;19924;-59
2022/05/01 03:09:34;;;;;;;;;;;;;;;;;;5012818;28;20053;-58
2022/05/01 03:11:59;;;;;;;;;;;;;;;;;;5013149;28;19923;-58
2022/05/01 03:14:28;;;;;;;;;;;;;;;;;;5032444;28;19927;-59
2022/05/01 03:16:53;;;;;;;;;;;;;;;;;;5035987;28;19921;-58
2022/05/01 03:22:11;;;;;;;;;;;;;;;;;;5013985;28;20091;-59
2022/05/01 03:24:41;;;;;;;;;;;;;;;;;;5013627;28;19920;-57
2022/05/01 03:27:09;;;;;;;;;;;;;;;;;;5033109;28;19927;-58
2022/05/01 03:29:36;;;;;;;;;;;;;;;;;;5011036;28;19921;-58
2022/05/01 03:32:02;;;;;;;;;;;;;;;;;;5033606;28;19916;-58
2022/05/01 03:34:27;;;;;;;;;;;;;;;;;;5031739;28;20429;-58
2022/05/01 03:36:53;;;;;;;;;;;;;;;;;;5033138;28;19917;-58
2022/05/01 03:39:18;;;;;;;;;;;;;;;;;;5011962;28;19925;-58
2022/05/01 03:42:02;;;;;;;;;;;;;;;;;;5035009;28;19920;-58
2022/05/01 03:44:28;;;;;;;;;;;;;;;;;;5030690;28;20241;-58
2022/05/01 03:46:53;;;;;;;;;;;;;;;;;;5033677;28;19921;-58
2022/05/01 03:49:22;;;;;;;;;;;;;;;;;;5033096;28;19921;-58
2022/05/01 03:51:47;;;;;;;;;;;;;;;;;;5010083;28;20897;-59
2022/05/01 03:54:15;;;;;;;;;;;;;;;;;;5029855;28;19924;-59
2022/05/01 03:56:40;;;;;;;;;;;;;;;;;;5031192;28;20693;-58
2022/05/01 03:59:06;;;;;;;;;;;;;;;;;;5013615;28;20052;-59
2022/05/01 04:01:36;;;;;;;;;;;;;;;;;;5031869;28;19927;-58
2022/05/01 04:04:01;;;;;;;;;;;;;;;;;;5011143;28;19920;-58
2022/05/01 04:06:32;;;;;;;;;;;;;;;;;;5032607;28;19917;-58
2022/05/01 04:08:57;;;;;;;;;;;;;;;;;;5012561;28;20602;-58
2022/05/01 04:11:23;;;;;;;;;;;;;;;;;;5012241;28;19921;-58
2022/05/01 04:13:50;;;;;;;;;;;;;;;;;;5032968;28;19925;-58
2022/05/01 04:16:18;;;;;;;;;;;;;;;;;;5031145;28;19948;-59
2022/05/01 04:18:46;;;;;;;;;;;;;;;;;;5013749;28;20007;-58
2022/05/01 04:21:13;;;;;;;;;;;;;;;;;;5011196;28;19921;-58
2022/05/01 04:23:38;;;;;;;;;;;;;;;;;;5009962;28;19925;-58
2022/05/01 04:26:06;;;;;;;;;;;;;;;;;;5030833;28;19931;-58
2022/05/01 04:28:34;;;;;;;;;;;;;;;;;;5032157;28;19924;-58
2022/05/01 04:31:01;;;;;;;;;;;;;;;;;;5030803;28;19966;-58
2022/05/01 04:33:27;;;;;;;;;;;;;;;;;;4998718;28;19917;-58
2022/05/01 04:35:55;;;;;;;;;;;;;;;;;;5016019;28;19938;-58
2022/05/01 04:38:26;;;;;;;;;;;;;;;;;;5015898;28;19925;-58
2022/05/01 04:40:53;;;;;;;;;;;;;;;;;;5034660;28;19920;-58
2022/05/01 04:43:18;;;;;;;;;;;;;;;;;;5015581;28;19928;-58
2022/05/01 04:45:44;;;;;;;;;;;;;;;;;;5034372;28;19978;-59
2022/05/01 04:48:09;;;;;;;;;;;;;;;;;;5015236;28;20023;-59
2022/05/01 04:50:34;;;;;;;;;;;;;;;;;;5035103;28;20437;-58
2022/05/01 04:53:03;;;;;;;;;;;;;;;;;;5034451;28;20477;-59
2022/05/01 04:55:28;;;;;;;;;;;;;;;;;;5032193;28;20148;-58
2022/05/01 04:57:57;;;;;;;;;;;;;;;;;;4997136;28;20372;-59
2022/05/01 05:00:22;;;;;;;;;;;;;;;;;;5032050;28;20356;-59
2022/05/01 05:02:47;;;;;;;;;;;;;;;;;;5013687;28;19920;-59
2022/05/01 05:05:13;;;;;;;;;;;;;;;;;;5033799;28;19928;-59
2022/05/01 05:07:40;;;;;;;;;;;;;;;;;;5033487;28;19925;-59
2022/05/01 05:10:06;;;;;;;;;;;;;;;;;;5013693;28;21886;-59
2022/05/01 05:12:36;;;;;;;;;;;;;;;;;;5012673;28;20338;-59
2022/05/01 05:15:04;;;;;;;;;;;;;;;;;;5032317;28;20006;-59
2022/05/01 05:17:31;;;;;;;;;;;;;;;;;;5032577;28;19916;-59
2022/05/01 05:19:57;;;;;;;;;;;;;;;;;;4998321;28;19916;-59
2022/05/01 05:22:24;;;;;;;;;;;;;;;;;;4996151;28;19924;-59
2022/05/01 05:24:49;;;;;;;;;;;;;;;;;;5014002;28;19927;-59
2022/05/01 05:27:20;;;;;;;;;;;;;;;;;;5032591;28;21391;-59
2022/05/01 05:29:47;;;;;;;;;;;;;;;;;;5012601;28;19936;-59
2022/05/01 05:32:13;;;;;;;;;;;;;;;;;;5034088;28;19974;-59
2022/05/01 05:34:40;;;;;;;;;;;;;;;;;;5020198;28;19924;-58
2022/05/01 05:37:05;;;;;;;;;;;;;;;;;;5012081;28;19977;-59
2022/05/01 05:39:31;;;;;;;;;;;;;;;;;;5015602;28;19943;-59
2022/05/01 05:41:58;;;;;;;;;;;;;;;;;;5012331;28;20417;-59
2022/05/01 05:44:26;;;;;;;;;;;;;;;;;;5018195;28;19960;-60
2022/05/01 05:46:52;;;;;;;;;;;;;;;;;;5036657;28;20047;-59
2022/05/01 05:49:17;;;;;;;;;;;;;;;;;;5015167;28;19947;-59
2022/05/01 05:51:42;;;;;;;;;;;;;;;;;;5037874;28;19921;-59
2022/05/01 05:54:09;;;;;;;;;;;;;;;;;;5018326;28;20550;-60
2022/05/01 05:56:35;;;;;;;;;;;;;;;;;;5037884;28;19926;-59
2022/05/01 05:59:00;;;;;;;;;;;;;;;;;;5037106;28;19956;-59
2022/05/01 06:01:26;;;;;;;;;;;;;;;;;;5036601;28;19920;-60
2022/05/01 06:03:52;;;;;;;;;;;;;;;;;;5035796;28;20391;-59
2022/05/01 06:06:18;;;;;;;;;;;;;;;;;;5036834;28;20005;-58
2022/05/01 06:08:43;;;;;;;;;;;;;;;;;;5010050;28;21774;-59
2022/05/01 06:11:09;;;;;;;;;;;;;;;;;;5018987;28;19917;-60
2022/05/01 06:13:37;;;;;;;;;;;;;;;;;;5020755;28;19916;-60
2022/05/01 06:16:03;;;;;;;;;;;;;;;;;;5017704;28;20846;-60
2022/05/01 06:18:28;;;;;;;;;;;;;;;;;;5019501;28;19974;-60
2022/05/01 06:20:53;;;;;;;;;;;;;;;;;;5038119;28;19920;-60
2022/05/01 06:23:19;;;;;;;;;;;;;;;;;;5019187;28;19917;-60
2022/05/01 06:25:46;;;;;;;;;;;;;;;;;;5037345;28;20039;-60
2022/05/01 06:28:11;;;;;;;;;;;;;;;;;;5019383;28;21936;-60
2022/05/01 06:30:37;;;;;;;;;;;;;;;;;;5036901;28;19927;-60
2022/05/01 06:33:03;;;;;;;;;;;;;;;;;;5035948;28;19921;-60
2022/05/01 06:35:31;;;;;;;;;;;;;;;;;;5018485;28;19931;-58
2022/05/01 06:37:58;;;;;;;;;;;;;;;;;;5036682;28;19952;-60
2022/05/01 06:40:23;;;;;;;;;;;;;;;;;;5019189;28;20047;-60
2022/05/01 06:42:51;;;;;;;;;;;;;;;;;;5036672;28;20858;-60
2022/05/01 06:45:21;;;;;;;;;;;;;;;;;;5035232;28;20007;-60
2022/05/01 06:47:52;;;;;;;;;;;;;;;;;;5037121;28;20373;-61
2022/05/01 06:50:21;;;;;;;;;;;;;;;;;;5037331;28;19922;-60
2022/05/01 06:52:52;;;;;;;;;;;;;;;;;;5019523;28;19956;-61
2022/05/01 06:55:18;;;;;;;;;;;;;;;;;;5026035;28;20028;-61
2022/05/01 06:57:47;;;;;;;;;;;;;;;;;;5002469;28;19947;-61
2022/05/01 07:00:12;;;;;;;;;;;;;;;;;;5018438;28;21233;-61
2022/05/01 07:02:37;;;;;;;;;;;;;;;;;;5019154;28;19960;-60
2022/05/01 07:05:06;;;;;;;;;;;;;;;;;;5035727;28;20004;-62
2022/05/01 07:07:31;;;;;;;;;;;;;;;;;;5018844;28;19948;-61
2022/05/01 07:09:59;;;;;;;;;;;;;;;;;;5001460;28;19925;-61
2022/05/01 07:12:26;;;;;;;;;;;;;;;;;;5034413;28;20031;-61
2022/05/01 07:14:53;;;;;;;;;;;;;;;;;;5035253;28;20404;-61
2022/05/01 07:17:20;;;;;;;;;;;;;;;;;;5017244;28;19924;-61
2022/05/01 07:19:46;;;;;;;;;;;;;;;;;;5035795;28;19924;-62
2022/05/01 07:22:14;;;;;;;;;;;;;;;;;;5001995;28;20873;-63
2022/05/01 07:24:39;;;;;;;;;;;;;;;;;;5014488;28;19917;-62
2022/05/01 07:27:04;;;;;;;;;;;;;;;;;;5017553;28;20502;-62
2022/05/01 07:29:32;;;;;;;;;;;;;;;;;;5036065;28;20583;-62
2022/05/01 07:32:05;;;;;;;;;;;;;;;;;;5036577;28;19925;-61
2022/05/01 07:34:30;;;;;;;;;;;;;;;;;;5018632;28;19969;-61
2022/05/01 07:36:58;;;;;;;;;;;;;;;;;;5033922;28;19920;-61
2022/05/01 07:39:25;;;;;;;;;;;;;;;;;;5036339;28;21139;-62
2022/05/01 07:41:53;;;;;;;;;;;;;;;;;;5018934;28;19921;-61
2022/05/01 07:44:20;;;;;;;;;;;;;;;;;;5036754;28;19966;-62
2022/05/01 07:46:46;;;;;;;;;;;;;;;;;;5000390;28;19970;-61
2022/05/01 07:49:11;;;;;;;;;;;;;;;;;;5015989;28;20019;-60
2022/05/01 07:51:40;;;;;;;;;;;;;;;;;;5032885;28;20157;-60
2022/05/01 07:54:07;;;;;;;;;;;;;;;;;;5016650;28;19974;-60
2022/05/01 07:56:33;;;;;;;;;;;;;;;;;;5017958;28;19920;-61
2022/05/01 07:59:01;;;;;;;;;;;;;;;;;;5017926;28;19921;-61
2022/05/01 08:01:29;;;;;;;;;;;;;;;;;;5017984;28;19931;-60
2022/05/01 08:06:38;;;;;;;;;;;;;;;;;;5017291;28;19970;-61
2022/05/01 08:09:06;;;;;;;;;;;;;;;;;;5034280;28;19925;-61
2022/05/01 08:11:33;;;;;;;;;;;;;;;;;;5035152;28;20474;-62
2022/05/01 08:14:00;;;;;;;;;;;;;;;;;;5034032;28;19920;-62
2022/05/01 08:16:26;;;;;;;;;;;;;;;;;;5034063;28;19977;-62
2022/05/01 08:21:57;;;;;;;;;;;;;;;;;;4992588;28;19921;-62
2022/05/01 08:24:22;;;;;;;;;;;;;;;;;;4975566;28;19980;-63
2022/05/01 08:26:48;;;;;;;;;;;;;;;;;;5011517;28;20117;-62
2022/05/01 08:29:16;;;;;;;;;;;;;;;;;;5014731;28;19970;-64
2022/05/01 08:31:42;;;;;;;;;;;;;;;;;;5033817;28;19921;-62
2022/05/01 08:34:10;;;;;;;;;;;;;;;;;;5012694;28;19924;-62
2022/05/01 08:36:35;;;;;;;;;;;;;;;;;;4996536;28;20461;-63
2022/05/01 08:39:00;;;;;;;;;;;;;;;;;;5012625;28;20054;-63
2022/05/01 08:41:28;;;;;;;;;;;;;;;;;;5012056;28;19922;-62
2022/05/01 08:43:54;;;;;;;;;;;;;;;;;;5033270;28;19917;-62
2022/05/01 08:46:24;;;;;;;;;;;;;;;;;;5012493;28;19921;-63
2022/05/01 08:48:49;;;;;;;;;;;;;;;;;;5013593;28;20123;-63
2022/05/01 08:51:17;;;;;;;;;;;;;;;;;;5033485;28;19917;-62
2022/05/01 08:53:42;;;;;;;;;;;;;;;;;;5034001;28;19923;-61
2022/05/01 08:56:10;;;;;;;;;;;;;;;;;;5033524;28;19929;-62
2022/05/01 08:58:37;;;;;;;;;;;;;;;;;;5033521;28;19921;-62
2022/05/01 09:01:03;;;;;;;;;;;;;;;;;;5031978;28;19979;-63
2022/05/01 09:03:28;;;;;;;;;;;;;;;;;;4996152;28;19932;-62
2022/05/01 09:05:54;;;;;;;;;;;;;;;;;;5033492;28;19917;-64
2022/05/01 09:08:22;;;;;;;;;;;;;;;;;;4995888;28;19925;-63
2022/05/01 09:10:48;;;;;;;;;;;;;;;;;;5014348;28;19952;-63
2022/05/01 09:13:13;;;;;;;;;;;;;;;;;;5030636;28;20047;-62
2022/05/01 09:15:43;;;;;;;;;;;;;;;;;;5013416;28;20011;-63
2022/05/01 09:18:09;;;;;;;;;;;;;;;;;;5011854;28;19928;-64
2022/05/01 09:20:39;;;;;;;;;;;;;;;;;;5009969;28;20466;-64
2022/05/01 09:23:07;;;;;;;;;;;;;;;;;;5010354;28;20031;-63
2022/05/01 09:25:32;;;;;;;;;;;;;;;;;;4996521;28;20910;-63
2022/05/01 09:28:01;;;;;;;;;;;;;;;;;;5012682;28;19925;-63
2022/05/01 09:30:31;;;;;;;;;;;;;;;;;;5011736;28;19924;-64
2022/05/01 09:32:57;;;;;;;;;;;;;;;;;;5032995;28;19921;-64
2022/05/01 09:35:25;;;;;;;;;;;;;;;;;;5013718;28;19928;-64
2022/05/01 09:37:51;;;;;;;;;;;;;;;;;;5032258;28;19917;-63
2022/05/01 09:40:16;;;;;;;;;;;;;;;;;;5033058;28;19931;-64
2022/05/01 09:42:44;;;;;;;;;;;;;;;;;;5018929;28;19975;-63
2022/05/01 09:45:12;;;;;;;;;;;;;;;;;;5012457;28;20015;-63
2022/05/01 09:47:37;;;;;;;;;;;;;;;;;;5013342;28;20343;-63
2022/05/01 09:50:05;;;;;;;;;;;;;;;;;;5032943;28;20121;-63
2022/05/01 09:52:30;;;;;;;;;;;;;;;;;;5012579;28;19995;-64
2022/05/01 09:54:55;;;;;;;;;;;;;;;;;;5012367;28;19932;-64
2022/05/01 09:57:23;;;;;;;;;;;;;;;;;;5017733;28;19928;-63
2022/05/01 09:59:48;;;;;;;;;;;;;;;;;;5010460;28;19963;-63
2022/05/01 10:02:13;;;;;;;;;;;;;;;;;;4994755;28;19936;-63
2022/05/01 10:04:41;;;;;;;;;;;;;;;;;;5031499;28;20093;-64
2022/05/01 10:07:09;;;;;;;;;;;;;;;;;;5031581;28;20861;-65
2022/05/01 10:09:35;;;;;;;;;;;;;;;;;;5013896;28;20410;-64
2022/05/01 10:12:02;;;;;;;;;;;;;;;;;;5032956;28;19916;-63
2022/05/01 10:14:33;;;;;;;;;;;;;;;;;;5012695;28;19917;-64
2022/05/01 10:17:00;;;;;;;;;;;;;;;;;;5012520;28;19963;-65
2022/05/01 10:19:28;;;;;;;;;;;;;;;;;;5009080;28;20497;-63
2022/05/01 10:21:56;;;;;;;;;;;;;;;;;;5033551;28;19960;-62
2022/05/01 10:24:21;;;;;;;;;;;;;;;;;;4997534;28;19928;-64
2022/05/01 10:26:46;;;;;;;;;;;;;;;;;;5032756;28;19927;-62
2022/05/01 10:29:14;;;;;;;;;;;;;;;;;;5013531;28;20642;-63
2022/05/01 10:34:26;;;;;;;;;;;;;;;;;;5037500;28;19920;-63
2022/05/01 10:36:58;;;;;;;;;;;;;;;;;;5015816;28;19971;-63
2022/05/01 10:39:24;;;;;;;;;;;;;;;;;;5036910;28;19978;-64
2022/05/01 10:41:50;;;;;;;;;;;;;;;;;;5037674;28;20059;-63
2022/05/01 10:44:15;;;;;;;;;;;;;;;;;;5016300;28;19927;-63
2022/05/01 10:46:43;;;;;;;;;;;;;;;;;;5036181;28;21826;-65
2022/05/01 10:49:10;;;;;;;;;;;;;;;;;;5037040;28;19931;-66
2022/05/01 10:51:39;;;;;;;;;;;;;;;;;;5012859;28;20246;-63
2022/05/01 10:54:07;;;;;;;;;;;;;;;;;;5016405;28;19959;-63
2022/05/01 10:56:32;;;;;;;;;;;;;;;;;;4999527;28;19936;-64
2022/05/01 10:58:58;;;;;;;;;;;;;;;;;;5036765;28;20895;-64
2022/05/01 11:01:23;;;;;;;;;;;;;;;;;;5035702;28;20533;-63
2022/05/01 11:03:50;;;;;;;;;;;;;;;;;;5018168;28;19948;-62
2022/05/01 11:06:18;;;;;;;;;;;;;;;;;;5037418;28;20426;-64
2022/05/01 11:08:43;;;;;;;;;;;;;;;;;;4998786;28;19936;-64
2022/05/01 11:11:12;;;;;;;;;;;;;;;;;;4998667;28;21954;-63
2022/05/01 11:13:40;;;;;;;;;;;;;;;;;;5015561;28;20087;-64
2022/05/01 11:16:05;;;;;;;;;;;;;;;;;;4997522;28;19927;-64
2022/05/01 11:18:31;;;;;;;;;;;;;;;;;;5036449;28;19931;-64
2022/05/01 11:20:57;;;;;;;;;;;;;;;;;;5016669;28;19921;-64
2022/05/01 11:23:25;;;;;;;;;;;;;;;;;;5035343;28;19930;-63
2022/05/01 11:25:50;;;;;;;;;;;;;;;;;;5016817;28;20477;-64
2022/05/01 11:28:15;;;;;;;;;;;;;;;;;;5000182;28;20518;-64
2022/05/01 11:30:43;;;;;;;;;;;;;;;;;;5016918;28;19917;-64
2022/05/01 11:33:11;;;;;;;;;;;;;;;;;;5014285;28;19951;-63
2022/05/01 11:35:36;;;;;;;;;;;;;;;;;;5017429;28;19929;-63
2022/05/01 11:38:02;;;;;;;;;;;;;;;;;;5014932;28;20287;-64
2022/05/01 11:40:30;;;;;;;;;;;;;;;;;;5032670;28;20023;-63
2022/05/01 11:42:58;;;;;;;;;;;;;;;;;;5032897;28;20059;-63
2022/05/01 11:45:25;;;;;;;;;;;;;;;;;;4994690;28;20638;-62
2022/05/01 11:47:50;;;;;;;;;;;;;;;;;;5014004;28;20414;-63
2022/05/01 11:50:18;;;;;;;;;;;;;;;;;;5034952;28;20039;-63
2022/05/01 11:52:44;;;;;;;;;;;;;;;;;;5015775;28;19974;-62
2022/05/01 11:55:11;;;;;;;;;;;;;;;;;;5035795;28;19936;-63
2022/05/01 12:03:13;;;;;;;;;;;;;;;;;;5003076;28;20040;-62
2022/05/01 12:05:38;;;;;;;;;;;;;;;;;;5016905;28;20006;-63
2022/05/01 12:08:03;;;;;;;;;;;;;;;;;;5035179;28;19933;-61
2022/05/01 12:10:29;;;;;;;;;;;;;;;;;;5032963;28;19920;-62
2022/05/01 12:12:57;;;;;;;;;;;;;;;;;;5012996;28;19920;-63
2022/05/01 12:15:25;;;;;;;;;;;;;;;;;;5014678;28;21013;-63
2022/05/01 12:17:51;;;;;;;;;;;;;;;;;;5036268;28;19921;-62
2022/05/01 12:20:18;;;;;;;;;;;;;;;;;;5035330;28;20482;-63
2022/05/01 12:22:46;;;;;;;;;;;;;;;;;;5012051;28;19917;-62
2022/05/01 12:25:12;;;;;;;;;;;;;;;;;;4997544;28;19929;-62
2022/05/01 12:27:43;;;;;;;;;;;;;;;;;;5013758;28;19928;-62
2022/05/01 12:30:08;;;;;;;;;;;;;;;;;;5035594;28;19967;-62
2022/05/01 12:32:37;;;;;;;;;;;;;;;;;;5008317;28;19927;-62
2022/05/01 12:35:05;;;;;;;;;;;;;;;;;;5034762;28;19977;-62
2022/05/01 12:37:34;;;;;;;;;;;;;;;;;;5009456;28;19932;-62
2022/05/01 12:39:59;;;;;;;;;;;;;;;;;;5013428;28;19917;-62
2022/05/01 12:45:43;;;;;;;;;;;;;;;;;;5033722;28;19931;-62
2022/05/01 12:48:11;;;;;;;;;;;;;;;;;;5019758;28;19925;-62
2022/05/01 12:50:43;;;;;;;;;;;;;;;;;;5016196;28;19927;-62
2022/05/01 12:53:11;;;;;;;;;;;;;;;;;;5014146;28;19917;-61
2022/05/01 12:55:40;;;;;;;;;;;;;;;;;;5035159;28;19921;-62
2022/05/01 12:58:08;;;;;;;;;;;;;;;;;;4996602;28;19966;-63
2022/05/01 13:00:36;;;;;;;;;;;;;;;;;;5015745;28;19943;-62
2022/05/01 13:03:01;;;;;;;;;;;;;;;;;;5015393;28;19955;-62
2022/05/01 13:05:27;;;;;;;;;;;;;;;;;;5034719;28;19951;-62
2022/05/01 13:07:58;;;;;;;;;;;;;;;;;;5033248;28;20087;-63
2022/05/01 13:10:26;;;;;;;;;;;;;;;;;;5013338;28;20149;-63
2022/05/01 13:12:51;;;;;;;;;;;;;;;;;;5014510;28;19993;-63
2022/05/01 13:15:20;;;;;;;;;;;;;;;;;;5034441;28;19912;-63
2022/05/01 13:17:45;;;;;;;;;;;;;;;;;;5014299;28;19923;-62
2022/05/01 13:20:10;;;;;;;;;;;;;;;;;;4995219;28;19952;-63
2022/05/01 13:22:40;;;;;;;;;;;;;;;;;;5033790;28;19921;-60
2022/05/01 13:25:12;;;;;;;;;;;;;;;;;;5018784;28;20478;-61
2022/05/01 13:27:39;;;;;;;;;;;;;;;;;;5014841;28;20111;-61
2022/05/01 13:30:04;;;;;;;;;;;;;;;;;;5034563;28;20848;-61
2022/05/01 13:32:30;;;;;;;;;;;;;;;;;;4998743;28;20332;-62
2022/05/01 13:34:59;;;;;;;;;;;;;;;;;;5034118;28;19921;-61
2022/05/01 13:37:25;;;;;;;;;;;;;;;;;;5014277;28;19921;-62
2022/05/01 13:45:21;;;;;;;;;;;;;;;;;;5033786;28;19929;-61
2022/05/01 13:47:49;;;;;;;;;;;;;;;;;;5009940;28;19920;-60
2022/05/01 13:50:18;;;;;;;;;;;;;;;;;;5034050;28;19921;-63
2022/05/01 13:52:43;;;;;;;;;;;;;;;;;;5033476;28;19928;-62
2022/05/01 13:55:10;;;;;;;;;;;;;;;;;;5031909;28;19920;-61
2022/05/01 13:57:38;;;;;;;;;;;;;;;;;;5032964;28;19921;-61
2022/05/01 14:00:06;;;;;;;;;;;;;;;;;;5011271;28;19921;-62
2022/05/01 14:02:31;;;;;;;;;;;;;;;;;;4995344;28;20627;-62
2022/05/01 14:05:01;;;;;;;;;;;;;;;;;;5015352;28;19928;-62
2022/05/01 14:07:29;;;;;;;;;;;;;;;;;;5017346;28;19961;-63
2022/05/01 14:09:54;;;;;;;;;;;;;;;;;;4998675;28;20307;-62
2022/05/01 14:12:20;;;;;;;;;;;;;;;;;;5035003;28;19959;-63
2022/05/01 14:14:46;;;;;;;;;;;;;;;;;;5035262;28;19921;-62
2022/05/01 14:17:11;;;;;;;;;;;;;;;;;;5013941;28;19966;-63
2022/05/01 14:19:36;;;;;;;;;;;;;;;;;;5017602;28;19970;-61
2022/05/01 14:22:02;;;;;;;;;;;;;;;;;;5035186;28;20011;-61
2022/05/01 14:24:36;;;;;;;;;;;;;;;;;;5035212;28;21788;-61
2022/05/01 14:27:04;;;;;;;;;;;;;;;;;;5035402;28;19963;-61
2022/05/01 14:29:29;;;;;;;;;;;;;;;;;;5001174;28;19927;-61
2022/05/01 14:31:57;;;;;;;;;;;;;;;;;;5018367;28;20308;-61
2022/05/01 14:34:23;;;;;;;;;;;;;;;;;;5001175;28;20899;-61
2022/05/01 14:36:50;;;;;;;;;;;;;;;;;;5034582;28;19964;-61
2022/05/01 14:39:18;;;;;;;;;;;;;;;;;;5036445;28;20379;-61
2022/05/01 14:41:49;;;;;;;;;;;;;;;;;;5000073;28;19925;-62
2022/05/01 14:44:17;;;;;;;;;;;;;;;;;;5000559;28;19992;-62
2022/05/01 14:46:42;;;;;;;;;;;;;;;;;;5017071;28;19921;-62
2022/05/01 14:49:10;;;;;;;;;;;;;;;;;;4999383;28;19972;-62
2022/05/01 14:51:38;;;;;;;;;;;;;;;;;;5036367;28;19928;-63
2022/05/01 14:54:08;;;;;;;;;;;;;;;;;;5034100;28;20549;-62
2022/05/01 14:56:36;;;;;;;;;;;;;;;;;;5015423;28;19917;-62
2022/05/01 15:07:14;;;;;;;;;;;;;;;;;;5006666;28;20025;-63
2022/05/01 15:09:39;;;;;;;;;;;;;;;;;;5009405;28;20064;-62
2022/05/01 15:12:09;;;;;;;;;;;;;;;;;;5009653;28;20837;-62
2022/05/01 15:14:35;;;;;;;;;;;;;;;;;;5016621;28;20002;-62
2022/05/01 15:17:03;;;;;;;;;;;;;;;;;;5033552;28;20012;-61
2022/05/01 15:19:29;;;;;;;;;;;;;;;;;;5036286;28;19917;-62
2022/05/01 15:24:41;;;;;;;;;;;;;;;;;;5034712;28;20714;-61
2022/05/01 15:27:09;;;;;;;;;;;;;;;;;;5014263;28;20916;-62
2022/05/01 15:29:34;;;;;;;;;;;;;;;;;;4996366;28;19917;-61
2022/05/01 15:31:59;;;;;;;;;;;;;;;;;;5015892;28;19920;-62
2022/05/01 15:34:33;;;;;;;;;;;;;;;;;;5017571;28;19920;-61
2022/05/01 15:36:58;;;;;;;;;;;;;;;;;;5014936;28;19916;-61
2022/05/01 15:39:25;;;;;;;;;;;;;;;;;;5013634;28;20039;-62
2022/05/01 15:41:51;;;;;;;;;;;;;;;;;;5036276;28;19916;-61
2022/05/01 15:44:18;;;;;;;;;;;;;;;;;;5015096;28;19917;-62
2022/05/01 15:46:55;;;;;;;;;;;;;;;;;;5031428;28;19967;-61
2022/05/01 15:54:56;;;;;;;;;;;;;;;;;;5035222;28;19920;-63
2022/05/01 15:57:22;;;;;;;;;;;;;;;;;;4999493;28;20006;-62
2022/05/01 15:59:47;;;;;;;;;;;;;;;;;;5015021;28;19928;-61
2022/05/01 16:02:15;;;;;;;;;;;;;;;;;;4999748;28;20299;-61
2022/05/01 16:04:42;;;;;;;;;;;;;;;;;;5035605;28;19921;-62
2022/05/01 16:07:12;;;;;;;;;;;;;;;;;;5014773;28;20027;-62
2022/05/01 16:09:38;;;;;;;;;;;;;;;;;;4999466;28;20012;-61
2022/05/01 16:12:03;;;;;;;;;;;;;;;;;;5033712;28;19940;-62
2022/05/01 16:14:32;;;;;;;;;;;;;;;;;;5015931;28;19925;-61
2022/05/01 16:17:00;;;;;;;;;;;;;;;;;;5034497;28;20027;-61
2022/05/01 16:19:26;;;;;;;;;;;;;;;;;;5014263;28;19966;-61
2022/05/01 16:21:51;;;;;;;;;;;;;;;;;;5035595;28;19916;-62
2022/05/01 16:24:19;;;;;;;;;;;;;;;;;;5033697;28;19920;-61
2022/05/01 16:26:48;;;;;;;;;;;;;;;;;;4998807;28;19967;-63
2022/05/01 16:29:15;;;;;;;;;;;;;;;;;;4994797;28;19917;-61
2022/05/01 16:31:43;;;;;;;;;;;;;;;;;;5014980;28;19925;-61
2022/05/01 16:34:09;;;;;;;;;;;;;;;;;;5034717;28;19972;-61
2022/05/01 16:36:36;;;;;;;;;;;;;;;;;;5013629;28;19916;-61
2022/05/01 16:39:07;;;;;;;;;;;;;;;;;;5014574;28;19965;-61
2022/05/01 16:41:32;;;;;;;;;;;;;;;;;;5014891;28;20478;-61
2022/05/01 16:44:00;;;;;;;;;;;;;;;;;;5033356;28;19917;-61
2022/05/01 16:46:25;;;;;;;;;;;;;;;;;;5013381;28;19931;-61
2022/05/01 16:48:51;;;;;;;;;;;;;;;;;;4998170;28;19920;-61
2022/05/01 16:51:19;;;;;;;;;;;;;;;;;;5032729;28;20056;-61
2022/05/01 16:53:44;;;;;;;;;;;;;;;;;;4998899;28;19913;-62
2022/05/01 16:56:09;;;;;;;;;;;;;;;;;;5033940;28;19959;-62
2022/05/01 16:58:37;;;;;;;;;;;;;;;;;;5014851;28;19947;-64
2022/05/01 17:01:05;;;;;;;;;;;;;;;;;;5013822;28;19917;-63
2022/05/01 17:03:33;;;;;;;;;;;;;;;;;;5034121;28;20408;-63
2022/05/01 17:05:59;;;;;;;;;;;;;;;;;;4997439;28;20061;-63
2022/05/01 17:08:27;;;;;;;;;;;;;;;;;;5033091;28;19928;-62
2022/05/01 17:10:54;;;;;;;;;;;;;;;;;;5012643;28;19925;-62
2022/05/01 17:13:19;;;;;;;;;;;;;;;;;;4997790;28;19923;-62
2022/05/01 17:15:45;;;;;;;;;;;;;;;;;;5012486;28;19934;-63
2022/05/01 17:18:12;;;;;;;;;;;;;;;;;;5033225;28;19939;-62
2022/05/01 17:20:39;;;;;;;;;;;;;;;;;;5033510;28;21915;-62
2022/05/01 17:23:11;;;;;;;;;;;;;;;;;;5033162;28;19916;-62
2022/05/01 17:25:36;;;;;;;;;;;;;;;;;;5014575;28;20094;-62
2022/05/01 17:28:04;;;;;;;;;;;;;;;;;;5014453;28;20479;-61
2022/05/01 17:30:32;;;;;;;;;;;;;;;;;;5012778;28;19968;-62
2022/05/01 17:33:00;;;;;;;;;;;;;;;;;;5032469;28;19917;-61
2022/05/01 17:35:27;;;;;;;;;;;;;;;;;;5013373;28;19943;-61
2022/05/01 17:37:52;;;;;;;;;;;;;;;;;;5010666;28;19921;-62